Time,TemperatureF,DewpointF,PressureIn,WindDirection,WindDirectionDegrees,WindSpeedMPH,WindSpeedGustMPH,Humidity,HourlyPrecipIn,Conditions,Clouds,dailyrainin,SoftwareType,DateUTC
2013-04-01 00:00:00,45.6,43.1,29.73,NW,315,1.0,10.0,91,0.00,,,-99.99,WeatherLink 5.6,2013-04-01 04:00:00,
2013-04-01 00:30:00,45.5,43.0,29.74,NW,315,2.0,10.0,91,0.00,,,-99.99,WeatherLink 5.6,2013-04-01 04:30:00,
2013-04-01 01:00:00,45.0,42.8,29.74,NW,315,3.0,13.0,92,0.00,,,-99.99,WeatherLink 5.6,2013-04-01 05:00:00,
2013-04-01 01:30:00,44.9,42.4,29.74,NW,315,1.0,12.0,91,0.00,,,-99.99,WeatherLink 5.6,2013-04-01 05:30:00,
2013-04-01 02:00:00,44.9,42.1,29.75,West,270,1.0,7.0,90,0.00,,,-99.99,WeatherLink 5.6,2013-04-01 06:00:00,
2013-04-01 02:30:00,44.1,41.4,29.74,West,270,0.0,7.0,90,0.00,,,-99.99,WeatherLink 5.6,2013-04-01 06:30:00,
2013-04-01 03:00:00,43.8,40.8,29.74,WSW,247,0.0,5.0,89,0.00,,,-99.99,WeatherLink 5.6,2013-04-01 07:00:00,
2013-04-01 03:30:00,43.6,40.0,29.74,WSW,247,1.0,5.0,87,0.00,,,-99.99,WeatherLink 5.6,2013-04-01 07:30:00,
2013-04-01 04:00:00,43.6,40.0,29.74,WSW,247,1.0,6.0,87,0.00,,,-99.99,WeatherLink 5.6,2013-04-01 08:00:00,
2013-04-01 04:30:00,43.6,39.7,29.73,WSW,247,1.0,9.0,86,0.00,,,-99.99,WeatherLink 5.6,2013-04-01 08:30:00,
2013-04-01 05:00:00,43.3,39.4,29.73,WSW,247,0.0,3.0,86,0.00,,,-99.99,WeatherLink 5.6,2013-04-01 09:00:00,
2013-04-01 05:30:00,43.4,39.2,29.73,WSW,247,3.0,10.0,85,0.00,,,-99.99,WeatherLink 5.6,2013-04-01 09:30:00,
2013-04-01 05:40:00,44.3,38.5,29.72,WSW,247,4.0,11.0,80,0.00,,,-99.99,WeatherLink 5.6,2013-04-01 09:40:00,
2013-04-01 06:10:00,42.4,38.2,29.73,SSW,202,3.0,7.0,85,0.00,,,-99.99,WeatherLink 5.6,2013-04-01 10:10:00,
2013-04-01 06:40:00,41.6,38.3,29.74,South,180,2.0,7.0,88,0.00,,,-99.99,WeatherLink 5.6,2013-04-01 10:40:00,
2013-04-01 07:10:00,41.6,37.7,29.74,SSW,202,1.0,5.0,86,0.00,,,-99.99,WeatherLink 5.6,2013-04-01 11:10:00,
2013-04-01 07:40:00,44.2,37.4,29.75,SW,225,0.0,6.0,77,0.00,,,-99.99,WeatherLink 5.6,2013-04-01 11:40:00,
2013-04-01 08:10:00,44.1,37.7,29.76,North,-999,0.0,0.0,78,0.00,,,-99.99,WeatherLink 5.6,2013-04-01 12:10:00,
2013-04-01 08:40:00,43.9,39.1,29.78,WNW,292,1.0,10.0,83,0.00,,,-99.99,WeatherLink 5.6,2013-04-01 12:40:00,
2013-04-01 09:10:00,44.6,40.4,29.78,West,270,4.0,14.0,85,0.00,,,-99.99,WeatherLink 5.6,2013-04-01 13:10:00,
2013-04-01 09:40:00,44.7,41.4,29.79,West,270,4.0,14.0,88,0.01,,,-99.99,WeatherLink 5.6,2013-04-01 13:40:00,
2013-04-01 10:10:00,45.3,41.4,29.79,WSW,247,7.0,19.0,86,0.01,,,-99.99,WeatherLink 5.6,2013-04-01 14:10:00,
2013-04-01 10:40:00,46.5,42.2,29.80,WSW,247,8.0,20.0,85,0.00,,,-99.99,WeatherLink 5.6,2013-04-01 14:40:00,
2013-04-01 12:00:00,46.5,42.2,29.80,West,270,6.0,19.0,85,0.00,,,-99.99,WeatherLink 5.6,2013-04-01 16:00:00,
2013-04-01 12:10:00,43.6,41.7,29.82,NW,315,10.0,22.0,93,0.01,,,-99.99,WeatherLink 5.6,2013-04-01 16:10:00,
2013-04-01 13:30:00,43.2,40.8,29.84,NW,315,9.0,21.0,91,0.00,,,-99.99,WeatherLink 5.6,2013-04-01 17:30:00,
2013-04-01 14:00:00,43.9,41.2,29.83,WNW,292,9.0,22.0,90,0.00,,,-99.99,WeatherLink 5.6,2013-04-01 18:00:00,
2013-04-01 14:20:00,43.4,40.4,29.84,NW,315,6.0,17.0,89,0.00,,,-99.99,WeatherLink 5.6,2013-04-01 18:20:00,
2013-04-01 14:40:00,47.1,39.6,29.82,NW,315,6.0,20.0,75,0.00,,,-99.99,WeatherLink 5.6,2013-04-01 18:40:00,
2013-04-01 15:10:00,48.1,39.1,29.80,WNW,292,9.0,21.0,71,0.00,,,-99.99,WeatherLink 5.6,2013-04-01 19:10:00,
2013-04-01 15:40:00,48.6,39.3,29.80,WNW,292,10.0,20.0,70,0.00,,,-99.99,WeatherLink 5.6,2013-04-01 19:40:00,
2013-04-01 16:10:00,48.5,38.0,29.80,WNW,292,9.0,28.0,67,0.00,,,-99.99,WeatherLink 5.6,2013-04-01 20:10:00,
2013-04-01 16:40:00,48.7,35.4,29.80,NW,315,10.0,23.0,60,0.00,,,-99.99,WeatherLink 5.6,2013-04-01 20:40:00,
2013-04-01 17:10:00,49.2,35.9,29.80,WNW,292,9.0,24.0,60,0.00,,,-99.99,WeatherLink 5.6,2013-04-01 21:10:00,
2013-04-01 17:40:00,48.8,32.9,29.80,WNW,292,12.0,28.0,54,0.00,,,-99.99,WeatherLink 5.6,2013-04-01 21:40:00,
2013-04-01 18:10:00,47.6,33.5,29.81,NW,315,12.0,30.0,58,0.00,,,-99.99,WeatherLink 5.6,2013-04-01 22:10:00,
2013-04-01 18:40:00,47.0,33.4,29.82,NW,315,10.0,21.0,59,0.00,,,-99.99,WeatherLink 5.6,2013-04-01 22:40:00,
2013-04-01 19:10:00,46.3,33.2,29.82,NW,315,10.0,22.0,60,0.00,,,-99.99,WeatherLink 5.6,2013-04-01 23:10:00,
2013-04-01 19:40:00,43.0,34.2,29.84,NNW,337,6.0,20.0,71,0.00,,,-99.99,WeatherLink 5.6,2013-04-01 23:40:00,
2013-04-01 20:10:00,40.8,33.5,29.86,NW,315,4.0,20.0,75,0.00,,,-99.99,WeatherLink 5.6,2013-04-02 00:10:00,
2013-04-01 20:40:00,40.2,33.2,29.88,NNW,337,4.0,15.0,76,0.00,,,-99.99,WeatherLink 5.6,2013-04-02 00:40:00,
2013-04-01 22:00:00,39.7,31.8,29.89,NW,315,2.0,11.0,73,0.00,,,-99.99,WeatherLink 5.6,2013-04-02 02:00:00,
2013-04-01 22:30:00,38.8,30.9,29.90,NW,315,2.0,11.0,73,0.00,,,-99.99,WeatherLink 5.6,2013-04-02 02:30:00,
2013-04-01 23:00:00,37.9,30.4,29.92,NW,315,2.0,10.0,74,0.00,,,-99.99,WeatherLink 5.6,2013-04-02 03:00:00,
2013-04-01 23:30:00,37.5,28.6,29.91,NW,315,1.0,9.0,70,0.00,,,-99.99,WeatherLink 5.6,2013-04-02 03:30:00,